createdAt,value
2023-05-08T00:02:14.525Z,62.09
2023-05-08T00:04:41.730Z,63.18
2023-05-08T00:07:08.967Z,61.77
2023-05-08T00:09:36.449Z,64.67
2023-05-08T00:12:03.763Z,63.51
2023-05-08T00:14:30.852Z,63.36
2023-05-08T00:16:58.047Z,63.61
2023-05-08T00:19:25.629Z,63.59
2023-05-08T00:21:52.731Z,63.88
2023-05-08T00:24:19.749Z,63.34
2023-05-08T00:26:46.753Z,65.17
2023-05-08T00:29:13.888Z,64.44
2023-05-08T00:31:40.994Z,64.96
2023-05-08T00:34:08.103Z,63.49
2023-05-08T00:36:35.176Z,63.96
2023-05-08T00:39:02.266Z,63.72
2023-05-08T00:41:29.418Z,63.37
2023-05-08T00:43:56.524Z,62.88
2023-05-08T00:46:23.825Z,64.29
2023-05-08T00:48:51.030Z,64.34
2023-05-08T00:51:18.314Z,64.38
2023-05-08T00:53:45.894Z,66.69
2023-05-08T00:56:16.990Z,65.93
2023-05-08T00:58:45.695Z,62.19
2023-05-08T01:01:13.579Z,60.00
2023-05-08T01:03:41.707Z,61.79
2023-05-08T01:06:09.329Z,59.12
2023-05-08T01:08:36.705Z,62.20
2023-05-08T01:11:40.519Z,61.29
2023-05-08T01:14:29.798Z,61.91
2023-05-08T01:17:39.239Z,61.37
2023-05-08T01:20:22.280Z,60.34
2023-05-08T01:23:16.839Z,60.78
2023-05-08T01:26:47.764Z,63.23
2023-05-08T01:29:30.888Z,63.58
2023-05-08T01:32:36.413Z,63.85
2023-05-08T01:35:32.766Z,60.19
2023-05-08T01:38:40.009Z,61.27
2023-05-08T01:41:25.748Z,59.51
2023-05-08T01:44:17.489Z,62.48
2023-05-08T01:46:53.399Z,62.67
2023-05-08T01:50:10.730Z,63.53
2023-05-08T01:52:51.309Z,60.93
2023-05-08T01:55:30.624Z,61.98
2023-05-08T01:57:59.843Z,63.20
2023-05-08T02:00:28.627Z,63.54
2023-05-08T02:02:58.317Z,64.19
2023-05-08T02:05:28.041Z,63.83
2023-05-08T02:07:56.619Z,64.99
2023-05-08T02:10:25.291Z,64.12
2023-05-08T02:12:53.764Z,63.95
2023-05-08T02:15:23.028Z,64.17
2023-05-08T02:17:50.956Z,62.82
2023-05-08T02:20:20.393Z,63.14
2023-05-08T02:22:51.772Z,63.35
2023-05-08T02:25:20.509Z,63.65
2023-05-08T02:27:50.660Z,65.61
2023-05-08T02:30:19.618Z,65.23
2023-05-08T02:32:49.765Z,65.02
2023-05-08T02:35:19.806Z,65.14
2023-05-08T02:37:55.370Z,66.68
2023-05-08T02:40:28.129Z,64.77
2023-05-08T02:42:56.085Z,66.78
2023-05-08T02:45:29.491Z,66.82
2023-05-08T02:48:22.859Z,68.45
2023-05-08T02:51:14.609Z,67.39
2023-05-08T02:53:57.152Z,67.21
2023-05-08T02:56:50.308Z,69.04
2023-05-08T02:59:28.658Z,68.28
2023-05-08T03:02:22.383Z,68.82
2023-05-08T03:05:00.157Z,69.35
2023-05-08T03:07:30.474Z,69.41
2023-05-08T03:10:10.762Z,68.12
2023-05-08T03:12:45.852Z,71.14
2023-05-08T03:15:42.039Z,69.48
2023-05-08T03:18:19.457Z,69.91
2023-05-08T03:20:52.688Z,69.15
2023-05-08T03:23:22.093Z,69.02
2023-05-08T03:25:49.267Z,70.11
2023-05-08T03:28:17.684Z,69.88
2023-05-08T03:30:44.987Z,67.88
2023-05-08T03:33:13.507Z,69.08
2023-05-08T03:35:42.493Z,69.63
2023-05-08T03:38:10.076Z,68.64
2023-05-08T03:40:39.075Z,70.84
2023-05-08T03:43:11.231Z,68.92
2023-05-08T03:45:41.536Z,70.46
2023-05-08T03:48:10.870Z,70.31
2023-05-08T03:50:38.962Z,70.59
2023-05-08T03:53:06.317Z,70.32
2023-05-08T03:55:33.711Z,71.17
2023-05-08T03:58:24.991Z,69.52
2023-05-08T04:01:39.923Z,68.30
2023-05-08T04:04:24.372Z,69.98
2023-05-08T04:07:42.968Z,68.74
2023-05-08T04:10:21.116Z,67.98
2023-05-08T04:13:22.667Z,68.77
2023-05-08T04:16:21.795Z,69.92
2023-05-08T04:18:54.338Z,69.94
2023-05-08T04:21:26.167Z,70.13
2023-05-08T04:23:56.148Z,68.69
2023-05-08T04:26:23.210Z,67.76
2023-05-08T04:28:50.974Z,67.29
2023-05-08T04:31:20.139Z,69.64
2023-05-08T04:33:47.624Z,66.40
2023-05-08T04:36:15.076Z,66.33
2023-05-08T04:38:42.210Z,66.73
2023-05-08T04:41:09.491Z,66.03
2023-05-08T04:43:37.099Z,65.84
2023-05-08T04:46:06.260Z,65.94
2023-05-08T04:48:33.948Z,63.61
2023-05-08T04:51:01.357Z,64.76
2023-05-08T04:53:31.536Z,64.89
2023-05-08T04:55:59.314Z,65.69
2023-05-08T04:58:26.589Z,65.35
2023-05-08T05:00:53.657Z,64.05
2023-05-08T05:03:20.783Z,64.13
2023-05-08T05:05:47.944Z,63.63
2023-05-08T05:08:15.002Z,62.94
2023-05-08T05:10:42.140Z,61.98
2023-05-08T05:13:09.505Z,61.09
2023-05-08T05:15:36.747Z,59.43
2023-05-08T05:18:03.922Z,59.51
2023-05-08T05:20:31.375Z,59.95
2023-05-08T05:22:58.413Z,59.74
2023-05-08T05:25:25.797Z,59.92
2023-05-08T05:27:54.022Z,59.21
2023-05-08T05:30:21.439Z,58.95
2023-05-08T05:32:52.451Z,59.80
2023-05-08T05:35:19.557Z,59.31
2023-05-08T05:37:46.757Z,59.07
2023-05-08T05:40:16.814Z,59.28
2023-05-08T05:42:50.832Z,58.91
2023-05-08T05:45:18.470Z,57.05
2023-05-08T05:47:50.585Z,58.55
2023-05-08T05:50:18.768Z,55.73
2023-05-08T05:52:46.294Z,55.25
2023-05-08T05:55:13.514Z,55.19
2023-05-08T05:57:40.799Z,55.08
2023-05-08T06:00:08.972Z,55.47
2023-05-08T06:02:39.574Z,55.02
2023-05-08T06:05:07.726Z,56.56
2023-05-08T06:07:35.655Z,55.31
2023-05-08T06:10:03.576Z,54.25
2023-05-08T06:12:33.914Z,55.25
2023-05-08T06:15:00.998Z,54.15
2023-05-08T06:17:28.095Z,54.55
2023-05-08T06:19:56.541Z,53.08
2023-05-08T06:22:24.473Z,55.75
2023-05-08T06:24:55.655Z,52.71
2023-05-08T06:27:23.184Z,53.29
2023-05-08T06:29:52.945Z,53.58
2023-05-08T06:32:21.279Z,55.85
2023-05-08T06:34:49.003Z,54.85
2023-05-08T06:37:16.200Z,53.50
2023-05-08T06:39:43.757Z,53.65
2023-05-08T06:42:10.937Z,53.24
2023-05-08T06:44:38.224Z,53.58
2023-05-08T06:47:05.389Z,52.82
2023-05-08T06:49:32.710Z,53.62
2023-05-08T06:51:59.777Z,54.86
2023-05-08T06:54:26.851Z,52.85
2023-05-08T06:56:54.675Z,53.28
2023-05-08T06:59:25.314Z,53.09
2023-05-08T07:01:52.667Z,50.06
2023-05-08T07:04:22.890Z,49.71
2023-05-08T07:06:50.201Z,51.55
2023-05-08T07:09:20.130Z,50.60
2023-05-08T07:11:48.080Z,50.08
2023-05-08T07:14:15.307Z,49.48
2023-05-08T07:16:42.618Z,51.09
2023-05-08T07:19:09.767Z,50.59
2023-05-08T07:21:40.142Z,50.16
2023-05-08T07:24:07.869Z,50.68
2023-05-08T07:26:34.956Z,50.80
2023-05-08T07:29:02.186Z,50.53
2023-05-08T07:31:29.362Z,49.18
2023-05-08T07:33:58.689Z,49.44
2023-05-08T07:36:25.825Z,48.48
2023-05-08T07:38:55.034Z,50.43
2023-05-08T07:41:22.205Z,47.66
2023-05-08T07:43:49.486Z,48.02
2023-05-08T07:46:18.682Z,49.24
2023-05-08T07:48:46.444Z,46.91
2023-05-08T07:51:15.136Z,45.13
2023-05-08T07:53:42.538Z,45.61
2023-05-08T07:56:09.756Z,44.49
2023-05-08T07:58:40.367Z,44.41
2023-05-08T08:01:07.719Z,43.20
2023-05-08T08:03:34.933Z,42.65
2023-05-08T08:06:02.217Z,43.04
2023-05-08T08:08:29.281Z,41.54
2023-05-08T08:10:56.526Z,40.80
2023-05-08T08:13:25.028Z,40.78
2023-05-08T08:15:52.185Z,40.69
2023-05-08T08:18:19.292Z,41.36
2023-05-08T08:20:47.130Z,41.03
2023-05-08T08:23:14.246Z,40.90
2023-05-08T08:25:41.619Z,42.79
2023-05-08T08:28:08.881Z,44.09
2023-05-08T08:30:36.014Z,43.83
2023-05-08T08:33:03.361Z,43.27
2023-05-08T08:35:30.624Z,43.30
2023-05-08T08:37:57.880Z,41.65
2023-05-08T08:40:25.400Z,41.96
2023-05-08T08:42:52.585Z,41.93
2023-05-08T08:45:19.832Z,39.60
2023-05-08T08:47:51.827Z,40.75
2023-05-08T08:50:22.055Z,41.66
2023-05-08T08:53:24.156Z,42.99
2023-05-08T08:55:53.842Z,40.53
2023-05-08T08:58:36.547Z,39.95
2023-05-08T09:01:07.794Z,40.65
2023-05-08T09:03:35.112Z,37.91
2023-05-08T09:06:02.678Z,37.70
2023-05-08T09:08:29.906Z,39.89
2023-05-08T09:10:57.119Z,38.32
2023-05-08T09:13:24.269Z,39.83
2023-05-08T09:15:51.495Z,40.37
2023-05-08T09:18:19.184Z,39.80
2023-05-08T09:20:46.954Z,36.73
2023-05-08T09:23:17.296Z,39.45
2023-05-08T09:25:47.809Z,38.26
2023-05-08T09:28:25.996Z,39.55
2023-05-08T09:31:00.004Z,38.40
2023-05-08T09:33:30.064Z,35.98
2023-05-08T09:35:58.132Z,36.89
2023-05-08T09:38:36.106Z,35.75
2023-05-08T09:41:15.664Z,35.89
2023-05-08T09:43:45.417Z,39.52
2023-05-08T09:46:27.335Z,40.43
2023-05-08T09:49:00.857Z,37.78
2023-05-08T09:51:31.670Z,37.95
2023-05-08T09:54:05.739Z,36.46
2023-05-08T09:56:39.468Z,37.63
2023-05-08T09:59:28.367Z,36.90
2023-05-08T10:01:56.572Z,35.69
2023-05-08T10:04:37.594Z,35.34
2023-05-08T10:07:05.185Z,35.46
2023-05-08T10:09:47.104Z,39.70
2023-05-08T10:12:18.241Z,36.28
2023-05-08T10:14:46.969Z,37.45
2023-05-08T10:17:24.582Z,35.45
2023-05-08T10:20:06.221Z,34.50
2023-05-08T10:22:37.730Z,36.87
2023-05-08T10:25:17.986Z,35.16
2023-05-08T10:28:24.107Z,34.81
2023-05-08T10:30:53.587Z,35.58
2023-05-08T10:33:31.717Z,34.24
2023-05-08T10:36:02.739Z,36.45
2023-05-08T10:38:32.817Z,34.11
2023-05-08T10:41:03.395Z,35.74
2023-05-08T10:43:31.434Z,35.71
2023-05-08T10:46:02.738Z,36.35
2023-05-08T10:48:56.421Z,33.28
2023-05-08T10:52:01.382Z,35.04
2023-05-08T10:55:17.042Z,33.85
2023-05-08T10:58:18.747Z,33.86
2023-05-08T11:00:59.546Z,35.36
2023-05-08T11:03:32.601Z,33.47
2023-05-08T11:06:04.228Z,36.11
2023-05-08T11:08:32.539Z,35.91
2023-05-08T11:11:00.116Z,33.37
2023-05-08T11:14:17.054Z,36.18
2023-05-08T11:17:02.472Z,35.67
2023-05-08T11:19:29.785Z,31.30
2023-05-08T11:22:16.294Z,35.99
2023-05-08T11:25:12.817Z,32.57
2023-05-08T11:27:51.922Z,32.47
2023-05-08T11:30:34.855Z,34.66
2023-05-08T11:33:05.117Z,32.67
2023-05-08T11:36:15.138Z,30.40
2023-05-08T11:38:44.277Z,31.09
2023-05-08T11:41:28.030Z,33.44
2023-05-08T11:44:14.890Z,31.53
2023-05-08T11:46:55.404Z,28.78
2023-05-08T11:49:29.415Z,29.61
2023-05-08T11:51:59.809Z,28.83
2023-05-08T11:54:31.622Z,32.62
2023-05-08T11:56:59.547Z,34.21
2023-05-08T11:59:26.811Z,28.93
2023-05-08T12:02:06.988Z,31.01
2023-05-08T12:04:47.494Z,32.28
2023-05-08T12:07:16.271Z,32.85
2023-05-08T12:09:43.424Z,33.06
2023-05-08T12:12:10.756Z,30.21
2023-05-08T12:14:37.820Z,29.89
2023-05-08T12:17:04.964Z,29.19
2023-05-08T12:19:32.149Z,30.99
2023-05-08T12:22:00.592Z,32.52
2023-05-08T12:24:27.719Z,28.50
2023-05-08T12:26:56.218Z,28.46
2023-05-08T12:29:24.040Z,30.80
2023-05-08T12:31:52.752Z,27.38
2023-05-08T12:34:20.660Z,27.86
2023-05-08T12:36:48.160Z,31.66
2023-05-08T12:39:21.502Z,29.88
2023-05-08T12:41:53.159Z,28.11
2023-05-08T12:44:26.663Z,26.73
2023-05-08T12:46:57.259Z,31.27
2023-05-08T12:49:32.368Z,32.98
2023-05-08T12:52:14.029Z,33.13
2023-05-08T12:54:50.083Z,29.29
2023-05-08T12:57:23.693Z,30.71
2023-05-08T13:00:04.334Z,30.86
2023-05-08T13:02:32.411Z,30.89
2023-05-08T13:05:03.435Z,27.38
2023-05-08T13:07:33.689Z,28.29
2023-05-08T13:10:04.708Z,29.05
2023-05-08T13:12:32.521Z,27.20
2023-05-08T13:15:00.447Z,27.65
2023-05-08T13:17:32.568Z,30.63
2023-05-08T13:20:05.907Z,29.77
2023-05-08T13:22:33.407Z,30.59
2023-05-08T13:25:03.984Z,30.45
2023-05-08T13:27:31.690Z,30.33
2023-05-08T13:29:58.783Z,30.04
2023-05-08T13:32:26.030Z,29.28
2023-05-08T13:34:55.225Z,30.69
2023-05-08T13:37:24.694Z,26.17
2023-05-08T13:39:51.885Z,28.20
2023-05-08T13:42:19.091Z,31.04
2023-05-08T13:44:46.220Z,30.69
2023-05-08T13:47:13.787Z,28.09
2023-05-08T13:49:47.247Z,28.10
2023-05-08T13:52:14.736Z,28.84
2023-05-08T13:54:42.136Z,29.92
2023-05-08T13:57:09.582Z,25.96
2023-05-08T13:59:39.889Z,29.25
2023-05-08T14:02:07.613Z,27.74
2023-05-08T14:04:34.869Z,26.50
2023-05-08T14:07:04.809Z,26.73
2023-05-08T14:09:32.269Z,25.21
2023-05-08T14:11:59.890Z,25.23
2023-05-08T14:14:28.584Z,27.48
2023-05-08T14:16:59.132Z,26.81
2023-05-08T14:19:35.087Z,26.91
2023-05-08T14:22:06.521Z,27.42
2023-05-08T14:24:33.767Z,25.96
2023-05-08T14:27:05.608Z,25.04
2023-05-08T14:29:34.200Z,27.14
2023-05-08T14:32:02.299Z,27.73
2023-05-08T14:34:29.629Z,25.67
2023-05-08T14:36:57.213Z,29.50
2023-05-08T14:39:24.481Z,25.47
2023-05-08T14:42:14.333Z,27.08
2023-05-08T14:44:39.005Z,26.30
2023-05-08T14:47:07.230Z,26.56
2023-05-08T14:49:38.445Z,27.30
2023-05-08T14:52:07.282Z,25.95
2023-05-08T14:54:37.898Z,27.25
2023-05-08T14:57:05.252Z,24.92
2023-05-08T14:59:32.321Z,25.64
2023-05-08T15:01:59.671Z,26.20
2023-05-08T15:04:29.911Z,27.22
2023-05-08T15:07:00.468Z,26.25
2023-05-08T15:09:27.654Z,26.28
2023-05-08T15:11:54.755Z,25.88
2023-05-08T15:14:22.112Z,25.03
2023-05-08T15:16:49.561Z,26.55
2023-05-08T15:19:17.372Z,27.61
2023-05-08T15:21:44.457Z,28.24
2023-05-08T15:24:11.667Z,26.76
2023-05-08T15:26:38.974Z,27.22
2023-05-08T15:29:08.460Z,25.23
2023-05-08T15:31:35.858Z,25.44
2023-05-08T15:34:02.952Z,26.24
2023-05-08T15:36:33.527Z,27.65
2023-05-08T15:39:00.749Z,26.91
2023-05-08T15:41:27.791Z,25.48
2023-05-08T15:43:54.930Z,27.42
2023-05-08T15:46:22.136Z,26.78
2023-05-08T15:48:49.265Z,26.59
2023-05-08T15:51:16.547Z,26.97
2023-05-08T15:53:44.354Z,27.34
2023-05-08T15:56:14.388Z,28.17
2023-05-08T15:58:41.714Z,26.26
2023-05-08T16:01:09.061Z,27.06
2023-05-08T16:03:36.531Z,27.55
2023-05-08T16:06:03.698Z,25.65
2023-05-08T16:08:31.261Z,26.65
2023-05-08T16:10:59.725Z,27.34
2023-05-08T16:13:28.225Z,25.58
2023-05-08T16:15:55.491Z,26.80
2023-05-08T16:18:22.581Z,25.13
2023-05-08T16:20:49.707Z,26.85
2023-05-08T16:23:17.109Z,28.00
2023-05-08T16:25:44.203Z,28.72
2023-05-08T16:28:14.252Z,28.48
2023-05-08T16:30:41.382Z,28.67
2023-05-08T16:33:08.901Z,27.60
2023-05-08T16:35:37.524Z,28.67
2023-05-08T16:38:04.760Z,29.98
2023-05-08T16:40:31.987Z,28.75
2023-05-08T16:43:04.846Z,29.58
2023-05-08T16:45:31.954Z,30.17
2023-05-08T16:47:59.028Z,30.23
2023-05-08T16:50:26.072Z,30.78
2023-05-08T16:52:53.161Z,30.17
2023-05-08T16:55:20.907Z,29.85
2023-05-08T16:57:48.330Z,29.32
2023-05-08T17:00:24.725Z,30.11
2023-05-08T17:02:52.004Z,30.78
2023-05-08T17:05:19.788Z,30.21
2023-05-08T17:07:51.635Z,31.05
2023-05-08T17:10:19.083Z,30.26
2023-05-08T17:12:46.348Z,31.76
2023-05-08T17:15:13.991Z,30.84
2023-05-08T17:17:41.339Z,31.17
2023-05-08T17:20:17.517Z,32.11
2023-05-08T17:22:44.956Z,30.89
2023-05-08T17:25:12.084Z,31.36
2023-05-08T17:27:39.177Z,31.92
2023-05-08T17:30:13.286Z,31.69
2023-05-08T17:32:40.679Z,31.98
2023-05-08T17:35:08.566Z,33.22
2023-05-08T17:37:35.692Z,32.76
2023-05-08T17:40:03.369Z,33.85
2023-05-08T17:42:30.603Z,33.43
2023-05-08T17:44:57.733Z,31.91
2023-05-08T17:47:24.846Z,33.17
2023-05-08T17:49:52.006Z,33.76
2023-05-08T17:52:19.100Z,34.45
2023-05-08T17:54:46.113Z,33.53
2023-05-08T17:57:13.226Z,35.37
2023-05-08T17:59:40.445Z,34.79
2023-05-08T18:02:07.480Z,34.61
2023-05-08T18:04:34.580Z,33.82
2023-05-08T18:07:01.714Z,35.74
2023-05-08T18:09:29.237Z,37.19
2023-05-08T18:12:02.270Z,36.48
2023-05-08T18:14:38.322Z,37.35
2023-05-08T18:17:06.019Z,37.69
2023-05-08T18:19:33.227Z,37.05
2023-05-08T18:22:00.314Z,36.83
2023-05-08T18:24:28.699Z,36.70
2023-05-08T18:26:55.912Z,37.04
2023-05-08T18:29:22.975Z,36.91
2023-05-08T18:31:50.652Z,36.52
2023-05-08T18:34:17.716Z,37.78
2023-05-08T18:36:44.917Z,37.47
2023-05-08T18:39:11.945Z,38.54
2023-05-08T18:41:39.181Z,39.52
2023-05-08T18:44:06.637Z,40.74
2023-05-08T18:46:33.827Z,41.56
2023-05-08T18:49:00.874Z,41.74
2023-05-08T18:51:28.118Z,42.42
2023-05-08T18:53:57.108Z,42.32
2023-05-08T18:56:24.264Z,42.85
2023-05-08T18:58:51.324Z,42.23
2023-05-08T19:01:20.041Z,43.03
2023-05-08T19:03:48.224Z,43.27
2023-05-08T19:06:16.881Z,44.24
2023-05-08T19:08:44.548Z,43.92
2023-05-08T19:11:11.840Z,44.97
2023-05-08T19:13:38.949Z,45.50
2023-05-08T19:16:06.833Z,46.53
2023-05-08T19:18:34.068Z,47.27
2023-05-08T19:21:02.231Z,46.46
2023-05-08T19:23:33.022Z,46.69
2023-05-08T19:26:00.112Z,46.99
2023-05-08T19:28:27.450Z,47.54
2023-05-08T19:30:54.989Z,46.51
2023-05-08T19:33:22.475Z,46.22
2023-05-08T19:35:49.655Z,47.33
2023-05-08T19:38:16.814Z,48.17
2023-05-08T19:40:56.296Z,47.73
2023-05-08T19:43:28.141Z,47.75
2023-05-08T19:45:56.195Z,47.17
2023-05-08T19:48:24.006Z,46.42
2023-05-08T19:50:53.868Z,46.57
2023-05-08T19:53:23.372Z,46.86
2023-05-08T19:55:50.730Z,46.16
2023-05-08T19:58:17.923Z,46.66
2023-05-08T20:00:51.039Z,48.66
2023-05-08T20:03:21.849Z,48.45
2023-05-08T20:05:51.801Z,48.21
2023-05-08T20:08:19.860Z,47.43
2023-05-08T20:10:53.240Z,48.54
2023-05-08T20:13:22.929Z,48.38
2023-05-08T20:15:51.622Z,48.77
2023-05-08T20:18:19.106Z,48.63
2023-05-08T20:20:49.121Z,47.62
2023-05-08T20:23:18.808Z,48.24
2023-05-08T20:25:47.711Z,48.54
2023-05-08T20:28:15.860Z,48.23
2023-05-08T20:30:42.958Z,49.49
2023-05-08T20:33:10.424Z,48.80
2023-05-08T20:35:37.958Z,48.62
2023-05-08T20:38:05.146Z,48.38
2023-05-08T20:40:33.541Z,48.85
2023-05-08T20:43:00.768Z,48.70
2023-05-08T20:45:28.136Z,48.62
2023-05-08T20:47:55.505Z,48.49
2023-05-08T20:50:22.649Z,48.22
2023-05-08T20:52:49.897Z,49.89
2023-05-08T20:55:16.992Z,49.93
2023-05-08T20:57:44.191Z,50.40
2023-05-08T21:00:12.011Z,50.37
2023-05-08T21:02:41.128Z,49.65
2023-05-08T21:05:09.293Z,50.59
2023-05-08T21:07:36.469Z,50.59
2023-05-08T21:10:03.894Z,51.00
2023-05-08T21:12:31.050Z,51.66
2023-05-08T21:14:58.074Z,51.83
2023-05-08T21:17:25.138Z,52.31
2023-05-08T21:19:52.230Z,52.55
2023-05-08T21:22:19.326Z,52.90
2023-05-08T21:24:46.355Z,52.34
2023-05-08T21:27:13.366Z,52.21
2023-05-08T21:29:40.660Z,53.56
2023-05-08T21:32:10.098Z,53.22
2023-05-08T21:34:37.630Z,51.31
2023-05-08T21:37:07.027Z,53.26
2023-05-08T21:39:34.276Z,52.93
2023-05-08T21:42:01.364Z,52.48
2023-05-08T21:44:31.191Z,52.48
2023-05-08T21:46:58.236Z,53.53
2023-05-08T21:49:27.615Z,52.57
2023-05-08T21:51:57.938Z,52.25
2023-05-08T21:54:24.985Z,52.44
2023-05-08T21:56:52.020Z,52.62
2023-05-08T21:59:19.466Z,53.25
2023-05-08T22:01:46.587Z,53.01
2023-05-08T22:04:13.757Z,53.02
2023-05-08T22:06:43.085Z,53.00
2023-05-08T22:09:10.233Z,53.75
2023-05-08T22:11:37.257Z,55.41
2023-05-08T22:14:04.334Z,54.84
2023-05-08T22:16:31.717Z,53.88
2023-05-08T22:18:58.977Z,54.80
2023-05-08T22:21:29.459Z,54.38
2023-05-08T22:23:57.189Z,54.64
2023-05-08T22:26:24.354Z,54.14
2023-05-08T22:28:51.612Z,54.44
2023-05-08T22:31:18.750Z,54.68
2023-05-08T22:33:45.993Z,54.39
2023-05-08T22:36:13.196Z,53.65
2023-05-08T22:38:40.753Z,53.30
2023-05-08T22:41:08.804Z,53.73
2023-05-08T22:43:36.604Z,54.31
2023-05-08T22:46:05.759Z,53.48
2023-05-08T22:48:33.332Z,54.12
2023-05-08T22:51:00.364Z,54.72
2023-05-08T22:53:27.464Z,54.71
2023-05-08T22:55:54.540Z,55.59
2023-05-08T22:58:21.627Z,54.12
2023-05-08T23:00:48.699Z,54.40
2023-05-08T23:03:16.501Z,54.94
2023-05-08T23:05:44.398Z,55.09
2023-05-08T23:08:11.767Z,54.17
2023-05-08T23:10:38.866Z,54.17
2023-05-08T23:13:06.113Z,54.37
2023-05-08T23:15:33.212Z,53.29
2023-05-08T23:18:00.651Z,53.84
2023-05-08T23:20:27.772Z,53.77
2023-05-08T23:22:55.247Z,53.25
2023-05-08T23:25:22.457Z,54.42
2023-05-08T23:27:49.481Z,54.96
2023-05-08T23:30:16.958Z,55.81
2023-05-08T23:32:45.151Z,54.97
2023-05-08T23:35:12.703Z,56.10
2023-05-08T23:37:40.045Z,55.46
2023-05-08T23:40:08.743Z,55.06
2023-05-08T23:42:37.124Z,55.58
2023-05-08T23:45:04.898Z,54.78
2023-05-08T23:47:32.108Z,56.17
2023-05-08T23:49:59.268Z,54.95
2023-05-08T23:52:26.776Z,55.24
2023-05-08T23:54:53.778Z,55.45
2023-05-08T23:57:20.912Z,54.59
2023-05-08T23:59:47.966Z,54.66
